createdAt,value
2023-02-09T00:00:12.228Z,103070.53
2023-02-09T00:02:40.689Z,103069.56
2023-02-09T00:05:11.214Z,103066.09
2023-02-09T00:07:39.565Z,103055.72
2023-02-09T00:10:08.506Z,103054.72
2023-02-09T00:12:56.960Z,103049.69
2023-02-09T00:15:25.395Z,103037.28
2023-02-09T00:17:53.701Z,103041.66
2023-02-09T00:20:22.746Z,103045.00
2023-02-09T00:22:51.194Z,103044.06
2023-02-09T00:25:19.702Z,103042.22
2023-02-09T00:27:50.106Z,103038.78
2023-02-09T00:30:19.723Z,103032.44
2023-02-09T00:32:48.035Z,103028.88
2023-02-09T00:35:17.270Z,103024.63
2023-02-09T00:37:45.752Z,103022.91
2023-02-09T00:40:14.179Z,103009.84
2023-02-09T00:42:42.558Z,103006.53
2023-02-09T00:45:12.779Z,102997.84
2023-02-09T00:47:41.670Z,102989.22
2023-02-09T00:50:10.577Z,102976.09
2023-02-09T00:52:39.944Z,102981.25
2023-02-09T00:55:09.038Z,102981.19
2023-02-09T00:57:37.444Z,102969.72
2023-02-09T01:00:07.432Z,102966.16
2023-02-09T01:02:37.351Z,102967.94
2023-02-09T01:05:06.737Z,102966.22
2023-02-09T01:07:35.248Z,102965.22
2023-02-09T01:10:03.629Z,102969.66
2023-02-09T01:12:32.703Z,102954.75
2023-02-09T01:15:01.974Z,102962.69
2023-02-09T01:17:30.634Z,102957.50
2023-02-09T01:20:00.362Z,102954.97
2023-02-09T01:22:29.216Z,102947.16
2023-02-09T01:24:57.669Z,102938.34
2023-02-09T01:27:26.054Z,102934.84
2023-02-09T01:29:54.587Z,102932.25
2023-02-09T01:32:23.243Z,102928.69
2023-02-09T01:34:55.351Z,102924.47
2023-02-09T01:37:25.223Z,102919.97
2023-02-09T01:39:53.551Z,102908.53
2023-02-09T01:42:22.769Z,102918.19
2023-02-09T01:45:21.577Z,102900.75
2023-02-09T01:47:58.282Z,102892.00
2023-02-09T01:50:28.262Z,102896.28
2023-02-09T01:52:58.373Z,102895.34
2023-02-09T01:55:32.403Z,102893.50
2023-02-09T01:58:08.204Z,102894.38
2023-02-09T02:00:36.858Z,102892.59
2023-02-09T02:03:10.675Z,102884.66
2023-02-09T02:05:44.830Z,102890.00
2023-02-09T02:08:22.245Z,102875.13
2023-02-09T02:10:50.618Z,102886.53
2023-02-09T02:13:21.023Z,102875.13
2023-02-09T02:16:03.034Z,102879.47
2023-02-09T02:19:17.073Z,102867.13
2023-02-09T02:22:40.832Z,102862.81
2023-02-09T02:26:03.155Z,102842.66
2023-02-09T02:29:28.296Z,102844.38
2023-02-09T02:32:15.344Z,102846.13
2023-02-09T02:34:51.718Z,102842.66
2023-02-09T02:37:43.682Z,102842.63
2023-02-09T02:40:27.295Z,102840.84
2023-02-09T02:43:08.021Z,102835.56
2023-02-09T02:45:44.810Z,102841.72
2023-02-09T02:48:27.353Z,102829.41
2023-02-09T02:51:03.587Z,102842.50
2023-02-09T02:53:36.981Z,102828.50
2023-02-09T02:56:12.020Z,102824.03
2023-02-09T02:58:43.565Z,102824.00
2023-02-09T03:01:18.533Z,102826.72
2023-02-09T03:03:50.852Z,102815.34
2023-02-09T03:06:20.107Z,102817.06
2023-02-09T03:08:52.657Z,102814.38
2023-02-09T03:11:24.552Z,102814.34
2023-02-09T03:14:23.503Z,102819.72
2023-02-09T03:17:08.817Z,102817.00
2023-02-09T03:19:49.788Z,102817.81
2023-02-09T03:22:30.869Z,102818.69
2023-02-09T03:25:08.678Z,102821.31
2023-02-09T03:27:42.699Z,102811.59
2023-02-09T03:30:15.800Z,102808.09
2023-02-09T03:32:48.178Z,102805.50
2023-02-09T03:35:21.256Z,102802.94
2023-02-09T03:37:49.622Z,102787.16
2023-02-09T03:40:19.471Z,102784.56
2023-02-09T03:42:47.840Z,102782.72
2023-02-09T03:45:16.434Z,102780.97
2023-02-09T03:47:44.679Z,102783.56
2023-02-09T03:50:13.048Z,102777.41
2023-02-09T03:52:42.758Z,102778.25
2023-02-09T03:55:11.136Z,102777.44
2023-02-09T03:57:39.916Z,102768.59
2023-02-09T04:00:10.390Z,102778.06
2023-02-09T04:02:38.721Z,102776.22
2023-02-09T04:05:08.384Z,102785.06
2023-02-09T04:07:36.931Z,102772.00
2023-02-09T04:10:07.913Z,102766.72
2023-02-09T04:12:36.193Z,102779.03
2023-02-09T04:15:04.842Z,102760.59
2023-02-09T04:17:33.201Z,102752.66
2023-02-09T04:20:01.557Z,102756.09
2023-02-09T04:22:29.795Z,102753.59
2023-02-09T04:24:58.057Z,102756.38
2023-02-09T04:27:28.510Z,102750.22
2023-02-09T04:29:56.735Z,102745.84
2023-02-09T04:32:24.937Z,102736.13
2023-02-09T04:34:53.210Z,102727.34
2023-02-09T04:37:21.665Z,102725.66
2023-02-09T04:39:50.879Z,102729.13
2023-02-09T04:42:21.693Z,102713.47
2023-02-09T04:44:51.629Z,102715.25
2023-02-09T04:47:20.022Z,102705.59
2023-02-09T04:49:48.312Z,102709.94
2023-02-09T04:52:16.601Z,102715.25
2023-02-09T04:54:44.874Z,102716.16
2023-02-09T04:57:30.430Z,102716.06
2023-02-09T05:00:00.113Z,102711.75
2023-02-09T05:02:29.505Z,102718.81
2023-02-09T05:04:58.038Z,102709.16
2023-02-09T05:07:26.880Z,102709.13
2023-02-09T05:09:56.005Z,102708.25
2023-02-09T05:12:24.326Z,102701.16
2023-02-09T05:14:53.587Z,102703.84
2023-02-09T05:17:23.398Z,102705.69
2023-02-09T05:19:51.718Z,102710.00
2023-02-09T05:22:20.083Z,102707.41
2023-02-09T05:24:48.411Z,102705.66
2023-02-09T05:27:16.695Z,102703.94
2023-02-09T05:29:44.979Z,102701.31
2023-02-09T05:32:13.309Z,102706.56
2023-02-09T05:34:44.024Z,102692.56
2023-02-09T05:37:12.522Z,102696.94
2023-02-09T05:39:40.853Z,102695.25
2023-02-09T05:42:16.463Z,102690.03
2023-02-09T05:44:46.531Z,102696.16
2023-02-09T05:47:16.970Z,102692.63
2023-02-09T05:49:47.815Z,102691.75
2023-02-09T05:52:18.045Z,102696.06
2023-02-09T05:54:48.811Z,102687.41
2023-02-09T05:57:18.248Z,102688.31
2023-02-09T05:59:47.573Z,102674.41
2023-02-09T06:02:16.030Z,102677.00
2023-02-09T06:04:44.275Z,102670.78
2023-02-09T06:07:13.926Z,102660.31
2023-02-09T06:09:42.194Z,102661.16
2023-02-09T06:12:10.452Z,102662.03
2023-02-09T06:14:39.955Z,102673.34
2023-02-09T06:17:08.338Z,102677.69
2023-02-09T06:19:36.612Z,102678.63
2023-02-09T06:22:04.890Z,102672.50
2023-02-09T06:24:35.616Z,102668.13
2023-02-09T06:27:03.875Z,102668.88
2023-02-09T06:29:32.516Z,102669.75
2023-02-09T06:32:00.979Z,102668.91
2023-02-09T06:34:29.666Z,102686.38
2023-02-09T06:36:57.931Z,102676.78
2023-02-09T06:39:26.513Z,102694.19
2023-02-09T06:41:56.172Z,102707.44
2023-02-09T06:44:24.468Z,102704.78
2023-02-09T06:46:52.768Z,102697.88
2023-02-09T06:49:23.654Z,102702.28
2023-02-09T06:51:52.107Z,102696.16
2023-02-09T06:54:21.263Z,102694.38
2023-02-09T06:56:49.734Z,102703.13
2023-02-09T06:59:19.565Z,102712.00
2023-02-09T07:01:53.432Z,102698.00
2023-02-09T07:04:24.065Z,102703.38
2023-02-09T07:06:52.416Z,102698.22
2023-02-09T07:09:20.655Z,102696.44
2023-02-09T07:11:48.941Z,102687.69
2023-02-09T07:14:18.747Z,102690.28
2023-02-09T07:16:47.776Z,102690.31
2023-02-09T07:19:16.491Z,102685.13
2023-02-09T07:21:45.083Z,102680.75
2023-02-09T07:24:13.593Z,102671.16
2023-02-09T07:26:42.926Z,102661.56
2023-02-09T07:29:12.898Z,102655.44
2023-02-09T07:31:43.289Z,102651.09
2023-02-09T07:34:12.588Z,102637.06
2023-02-09T07:36:40.999Z,102637.97
2023-02-09T07:39:09.361Z,102643.28
2023-02-09T07:41:37.853Z,102649.44
2023-02-09T07:44:06.216Z,102645.06
2023-02-09T07:46:34.949Z,102637.16
2023-02-09T07:49:05.799Z,102645.91
2023-02-09T07:51:36.085Z,102640.56
2023-02-09T07:54:07.448Z,102640.59
2023-02-09T07:56:35.858Z,102642.38
2023-02-09T07:59:04.207Z,102644.13
2023-02-09T08:01:32.652Z,102642.38
2023-02-09T08:04:01.429Z,102638.84
2023-02-09T08:06:42.473Z,102647.59
2023-02-09T08:09:14.013Z,102643.16
2023-02-09T08:11:51.611Z,102648.44
2023-02-09T08:14:27.142Z,102648.38
2023-02-09T08:17:23.959Z,102644.03
2023-02-09T08:19:59.991Z,102643.16
2023-02-09T08:22:35.784Z,102648.38
2023-02-09T08:25:06.491Z,102652.72
2023-02-09T08:27:37.407Z,102643.88
2023-02-09T08:30:07.931Z,102649.03
2023-02-09T08:32:36.308Z,102641.88
2023-02-09T08:35:04.867Z,102642.84
2023-02-09T08:37:34.673Z,102638.28
2023-02-09T08:40:02.974Z,102635.63
2023-02-09T08:42:31.405Z,102643.56
2023-02-09T08:44:59.690Z,102635.59
2023-02-09T08:47:28.065Z,102633.81
2023-02-09T08:49:56.375Z,102636.16
2023-02-09T08:52:24.608Z,102608.94
2023-02-09T08:54:54.286Z,102610.72
2023-02-09T08:57:25.629Z,102614.09
2023-02-09T09:00:00.322Z,102601.75
2023-02-09T09:02:29.697Z,102597.53
2023-02-09T09:04:57.972Z,102592.19
2023-02-09T09:07:26.493Z,102589.44
2023-02-09T09:09:56.216Z,102588.41
2023-02-09T09:12:24.664Z,102577.91
2023-02-09T09:14:52.947Z,102574.13
2023-02-09T09:17:22.510Z,102572.94
2023-02-09T09:19:52.575Z,102570.13
2023-02-09T09:22:21.073Z,102578.44
2023-02-09T09:24:49.586Z,102571.88
2023-02-09T09:27:19.776Z,102584.22
2023-02-09T09:29:48.159Z,102573.56
2023-02-09T09:32:16.631Z,102587.53
2023-02-09T09:34:45.749Z,102568.47
2023-02-09T09:37:14.971Z,102559.66
2023-02-09T09:39:43.697Z,102563.22
2023-02-09T09:42:32.987Z,102546.25
2023-02-09T09:45:02.466Z,102540.13
2023-02-09T09:47:38.846Z,102535.59
2023-02-09T09:50:17.032Z,102527.78
2023-02-09T09:52:53.720Z,102522.88
2023-02-09T09:55:26.662Z,102518.56
2023-02-09T09:58:02.427Z,102525.28
2023-02-09T10:00:37.337Z,102532.13
2023-02-09T10:03:15.042Z,102529.81
2023-02-09T10:05:46.839Z,102520.63
2023-02-09T10:08:23.526Z,102514.13
2023-02-09T10:11:01.682Z,102512.50
2023-02-09T10:13:36.864Z,102512.81
2023-02-09T10:16:17.900Z,102505.13
2023-02-09T10:18:46.818Z,102505.97
2023-02-09T10:21:18.179Z,102496.81
2023-02-09T10:23:49.722Z,102481.84
2023-02-09T10:26:25.870Z,102481.00
2023-02-09T10:28:58.361Z,102484.78
2023-02-09T10:31:33.653Z,102475.63
2023-02-09T10:34:11.179Z,102469.56
2023-02-09T10:36:51.736Z,102454.06
2023-02-09T10:39:25.338Z,102457.03
2023-02-09T10:41:56.891Z,102452.69
2023-02-09T10:44:31.778Z,102459.25
2023-02-09T10:47:24.807Z,102457.06
2023-02-09T10:49:58.280Z,102467.38
2023-02-09T10:52:33.790Z,102463.94
2023-02-09T10:55:07.808Z,102462.25
2023-02-09T10:57:39.658Z,102464.97
2023-02-09T11:03:03.676Z,102471.75
2023-02-09T11:05:35.941Z,102471.91
2023-02-09T11:08:33.599Z,102474.59
2023-02-09T11:11:09.252Z,102449.00
2023-02-09T11:13:41.776Z,102443.25
2023-02-09T11:16:48.162Z,102430.78
2023-02-09T11:19:51.414Z,102429.50
2023-02-09T11:22:37.925Z,102431.84
2023-02-09T11:25:21.005Z,102423.53
2023-02-09T11:28:18.596Z,102453.97
2023-02-09T11:31:36.062Z,102463.00
2023-02-09T11:34:19.918Z,102460.28
2023-02-09T11:37:03.585Z,102455.25
2023-02-09T11:39:52.430Z,102449.53
2023-02-09T11:42:46.273Z,102456.88
2023-02-09T11:45:23.333Z,102451.97
2023-02-09T11:48:05.291Z,102455.13
2023-02-09T11:50:45.542Z,102461.78
2023-02-09T11:53:29.104Z,102472.09
2023-02-09T11:56:03.102Z,102474.72
2023-02-09T11:58:45.973Z,102468.63
2023-02-09T12:01:28.847Z,102461.22
2023-02-09T12:04:10.823Z,102461.69
2023-02-09T12:06:44.437Z,102477.16
2023-02-09T12:09:44.728Z,102463.19
2023-02-09T12:12:26.516Z,102444.22
2023-02-09T12:15:14.740Z,102461.91
2023-02-09T12:17:50.250Z,102455.66
2023-02-09T12:20:32.653Z,102462.66
2023-02-09T12:23:07.869Z,102461.41
2023-02-09T12:25:59.695Z,102463.97
2023-02-09T12:28:46.379Z,102450.44
2023-02-09T12:31:26.968Z,102444.22
2023-02-09T12:34:30.632Z,102454.19
2023-02-09T12:37:27.288Z,102448.72
2023-02-09T12:40:23.941Z,102447.22
2023-02-09T12:43:30.105Z,102441.41
2023-02-09T12:46:26.988Z,102446.19
2023-02-09T12:49:20.045Z,102448.94
2023-02-09T12:52:16.040Z,102440.91
2023-02-09T12:54:51.842Z,102430.97
2023-02-09T12:57:53.662Z,102442.28
2023-02-09T13:00:55.436Z,102438.56
2023-02-09T13:03:27.800Z,102437.78
2023-02-09T13:06:02.676Z,102453.31
2023-02-09T13:08:50.793Z,102455.44
2023-02-09T13:11:44.593Z,102453.94
2023-02-09T13:14:16.422Z,102457.25
2023-02-09T13:17:14.507Z,102457.22
2023-02-09T13:20:19.969Z,102462.91
2023-02-09T13:23:04.256Z,102458.19
2023-02-09T13:25:37.534Z,102456.78
2023-02-09T13:28:18.329Z,102474.56
2023-02-09T13:30:48.332Z,102465.88
2023-02-09T13:33:39.613Z,102475.22
2023-02-09T13:36:26.580Z,102465.66
2023-02-09T13:38:55.192Z,102455.97
2023-02-09T13:41:35.683Z,102455.31
2023-02-09T13:44:04.422Z,102451.34
2023-02-09T13:46:35.387Z,102448.13
2023-02-09T13:49:21.892Z,102445.13
2023-02-09T13:52:15.932Z,102440.78
2023-02-09T13:54:45.306Z,102452.66
2023-02-09T13:57:31.968Z,102445.13
2023-02-09T14:00:17.920Z,102442.97
2023-02-09T14:02:52.974Z,102436.50
2023-02-09T14:05:35.342Z,102434.13
2023-02-09T14:08:04.925Z,102450.56
2023-02-09T14:10:36.191Z,102452.59
2023-02-09T14:13:11.204Z,102452.78
2023-02-09T14:16:03.848Z,102456.28
2023-02-09T14:18:49.714Z,102455.59
2023-02-09T14:21:32.617Z,102454.66
2023-02-09T14:24:21.213Z,102445.47
2023-02-09T14:27:03.941Z,102447.41
2023-02-09T14:29:35.768Z,102448.19
2023-02-09T14:32:32.159Z,102454.38
2023-02-09T14:35:17.514Z,102460.25
2023-02-09T14:37:49.039Z,102464.66
2023-02-09T14:40:32.040Z,102467.09
2023-02-09T14:43:05.095Z,102464.22
2023-02-09T14:45:41.886Z,102441.97
2023-02-09T14:48:22.515Z,102463.41
2023-02-09T14:50:55.408Z,102468.50
2023-02-09T14:53:29.188Z,102468.38
2023-02-09T14:55:59.354Z,102472.91
2023-02-09T14:58:31.089Z,102487.06
2023-02-09T15:01:02.177Z,102485.44
2023-02-09T15:03:30.592Z,102487.97
2023-02-09T15:06:01.918Z,102481.16
2023-02-09T15:08:39.009Z,102485.84
2023-02-09T15:11:25.516Z,102497.03
2023-02-09T15:13:59.469Z,102502.25
2023-02-09T15:16:27.907Z,102500.31
2023-02-09T15:18:57.522Z,102507.50
2023-02-09T15:21:26.020Z,102511.81
2023-02-09T15:23:56.716Z,102506.53
2023-02-09T15:26:26.929Z,102509.31
2023-02-09T15:28:56.374Z,102504.13
2023-02-09T15:31:24.889Z,102514.69
2023-02-09T15:33:53.223Z,102505.19
2023-02-09T15:36:27.962Z,102502.38
2023-02-09T15:38:57.709Z,102499.19
2023-02-09T15:41:43.303Z,102491.97
2023-02-09T15:44:36.233Z,102491.13
2023-02-09T15:47:22.554Z,102497.50
2023-02-09T15:49:50.901Z,102493.22
2023-02-09T15:52:20.612Z,102490.59
2023-02-09T15:54:53.946Z,102486.31
2023-02-09T15:57:25.155Z,102489.44
2023-02-09T15:59:53.543Z,102481.41
2023-02-09T16:02:22.434Z,102483.59
2023-02-09T16:04:50.866Z,102494.13
2023-02-09T16:07:27.548Z,102493.97
2023-02-09T16:09:57.221Z,102493.25
2023-02-09T16:12:25.599Z,102497.31
2023-02-09T16:14:54.951Z,102500.91
2023-02-09T16:17:23.360Z,102500.69
2023-02-09T16:19:51.879Z,102507.75
2023-02-09T16:22:23.550Z,102499.84
2023-02-09T16:24:52.355Z,102497.16
2023-02-09T16:27:29.535Z,102501.50
2023-02-09T16:29:59.433Z,102505.00
2023-02-09T16:32:29.994Z,102506.91
2023-02-09T16:35:14.640Z,102506.75
2023-02-09T16:37:47.856Z,102504.31
2023-02-09T16:40:26.923Z,102502.56
2023-02-09T16:42:59.494Z,102498.81
2023-02-09T16:45:31.557Z,102502.44
2023-02-09T16:47:59.931Z,102507.75
2023-02-09T16:50:33.409Z,102500.78
2023-02-09T16:53:05.309Z,102502.69
2023-02-09T16:55:36.439Z,102499.19
2023-02-09T16:58:06.963Z,102503.31
2023-02-09T17:00:38.433Z,102498.91
2023-02-09T17:03:15.686Z,102495.41
2023-02-09T17:05:48.313Z,102496.19
2023-02-09T17:08:21.214Z,102497.16
2023-02-09T17:10:54.994Z,102506.28
2023-02-09T17:13:25.036Z,102504.19
2023-02-09T17:15:56.103Z,102507.13
2023-02-09T17:18:27.903Z,102514.06
2023-02-09T17:21:00.949Z,102517.38
2023-02-09T17:23:31.840Z,102520.28
2023-02-09T17:26:00.588Z,102523.63
2023-02-09T17:28:32.782Z,102513.94
2023-02-09T17:31:04.884Z,102534.03
2023-02-09T17:33:36.682Z,102517.22
2023-02-09T17:38:56.188Z,102519.03
2023-02-09T17:41:33.446Z,102527.88
2023-02-09T17:44:26.431Z,102527.75
2023-02-09T17:46:57.694Z,102519.13
2023-02-09T17:49:26.143Z,102533.06
2023-02-09T17:51:54.498Z,102544.50
2023-02-09T17:54:27.843Z,102548.00
2023-02-09T17:56:56.243Z,102546.25
2023-02-09T17:59:25.928Z,102545.44
2023-02-09T18:01:56.176Z,102541.03
2023-02-09T18:04:27.334Z,102538.34
2023-02-09T18:06:57.801Z,102536.66
2023-02-09T18:09:26.390Z,102534.91
2023-02-09T18:12:03.623Z,102530.59
2023-02-09T18:14:35.125Z,102530.47
2023-02-09T18:17:03.907Z,102541.13
2023-02-09T18:19:33.128Z,102532.28
2023-02-09T18:22:03.422Z,102544.66
2023-02-09T18:24:35.369Z,102555.25
2023-02-09T18:27:04.696Z,102536.78
2023-02-09T18:29:34.453Z,102528.88
2023-02-09T18:32:04.018Z,102525.28
2023-02-09T18:34:32.732Z,102555.41
2023-02-09T18:37:01.028Z,102551.09
2023-02-09T18:39:30.752Z,102544.78
2023-02-09T18:42:00.129Z,102541.25
2023-02-09T18:44:31.257Z,102548.38
2023-02-09T18:47:02.030Z,102543.00
2023-02-09T18:49:30.954Z,102553.47
2023-02-09T18:51:59.560Z,102552.69
2023-02-09T18:54:29.225Z,102554.34
2023-02-09T18:56:57.613Z,102550.81
2023-02-09T18:59:30.474Z,102553.56
2023-02-09T19:02:01.125Z,102554.41
2023-02-09T19:04:29.726Z,102557.03
2023-02-09T19:06:58.152Z,102568.63
2023-02-09T19:09:27.040Z,102561.66
2023-02-09T19:11:55.597Z,102561.88
2023-02-09T19:14:38.862Z,102561.09
2023-02-09T19:17:15.557Z,102554.22
2023-02-09T19:19:44.670Z,102556.19
2023-02-09T19:22:17.284Z,102554.59
2023-02-09T19:24:47.532Z,102551.31
2023-02-09T19:27:18.923Z,102546.19
2023-02-09T19:29:47.688Z,102555.00
2023-02-09T19:32:17.331Z,102558.53
2023-02-09T19:34:46.045Z,102556.81
2023-02-09T19:37:16.444Z,102557.75
2023-02-09T19:39:52.812Z,102559.53
2023-02-09T19:42:22.698Z,102558.66
2023-02-09T19:44:55.121Z,102561.31
2023-02-09T19:47:27.531Z,102569.22
2023-02-09T19:49:59.003Z,102572.59
2023-02-09T19:52:29.682Z,102561.88
2023-02-09T19:54:58.570Z,102560.81
2023-02-09T19:57:27.354Z,102566.13
2023-02-09T19:59:59.332Z,102566.13
2023-02-09T20:02:29.248Z,102570.50
2023-02-09T20:04:57.977Z,102569.41
2023-02-09T20:07:26.521Z,102564.03
2023-02-09T20:09:57.048Z,102559.50
2023-02-09T20:12:25.525Z,102561.16
2023-02-09T20:14:55.767Z,102574.38
2023-02-09T20:17:24.208Z,102569.16
2023-02-09T20:19:53.884Z,102577.91
2023-02-09T20:22:22.802Z,102572.63
2023-02-09T20:24:51.067Z,102578.88
2023-02-09T20:27:19.913Z,102594.72
2023-02-09T20:29:48.255Z,102600.00
2023-02-09T20:32:16.687Z,102609.72
2023-02-09T20:34:44.943Z,102601.66
2023-02-09T20:37:14.678Z,102609.63
2023-02-09T20:39:42.959Z,102606.94
2023-02-09T20:42:28.693Z,102623.69
2023-02-09T20:45:14.494Z,102626.31
2023-02-09T20:47:43.139Z,102619.25
2023-02-09T20:50:13.766Z,102616.59
2023-02-09T20:52:45.744Z,102621.91
2023-02-09T20:55:14.546Z,102627.25
2023-02-09T20:57:42.969Z,102631.69
2023-02-09T21:00:12.795Z,102634.34
2023-02-09T21:02:41.365Z,102633.44
2023-02-09T21:05:10.461Z,102623.66
2023-02-09T21:07:38.943Z,102625.50
2023-02-09T21:10:10.141Z,102628.16
2023-02-09T21:12:38.423Z,102619.41
2023-02-09T21:15:07.612Z,102621.31
2023-02-09T21:17:36.018Z,102617.69
2023-02-09T21:20:06.258Z,102620.25
2023-02-09T21:22:34.593Z,102616.78
2023-02-09T21:25:02.811Z,102610.69
2023-02-09T21:27:33.448Z,102615.25
2023-02-09T21:30:01.846Z,102621.50
2023-02-09T21:32:30.201Z,102623.31
2023-02-09T21:34:58.521Z,102617.13
2023-02-09T21:37:26.924Z,102628.53
2023-02-09T21:39:55.847Z,102634.69
2023-02-09T21:42:27.254Z,102630.28
2023-02-09T21:44:57.295Z,102629.38
2023-02-09T21:47:27.783Z,102634.59
2023-02-09T21:49:57.285Z,102632.03
2023-02-09T21:52:28.305Z,102637.31
2023-02-09T21:54:56.777Z,102622.28
2023-02-09T21:57:26.160Z,102623.09
2023-02-09T21:59:56.120Z,102628.38
2023-02-09T22:02:24.563Z,102626.63
2023-02-09T22:04:53.793Z,102629.28
2023-02-09T22:07:22.208Z,102638.09
2023-02-09T22:09:50.617Z,102641.63
2023-02-09T22:12:19.019Z,102646.81
2023-02-09T22:14:47.324Z,102646.84
2023-02-09T22:17:17.106Z,102645.94
2023-02-09T22:19:45.346Z,102644.16
2023-02-09T22:22:13.780Z,102635.34
2023-02-09T22:24:42.201Z,102645.03
2023-02-09T22:27:10.483Z,102650.28
2023-02-09T22:29:38.851Z,102641.44
2023-02-09T22:32:07.188Z,102658.22
2023-02-09T22:34:37.002Z,102652.84
2023-02-09T22:37:05.543Z,102661.66
2023-02-09T22:39:33.860Z,102665.25
2023-02-09T22:42:02.139Z,102659.91
2023-02-09T22:44:32.250Z,102674.91
2023-02-09T22:47:00.500Z,102666.06
2023-02-09T22:49:29.054Z,102678.41
2023-02-09T22:51:58.777Z,102676.56
2023-02-09T22:54:27.152Z,102676.56
2023-02-09T22:56:56.567Z,102679.19
2023-02-09T22:59:26.100Z,102673.13
2023-02-09T23:01:54.387Z,102687.09
2023-02-09T23:04:22.790Z,102677.53
2023-02-09T23:06:52.234Z,102685.31
2023-02-09T23:09:22.171Z,102676.44
2023-02-09T23:11:50.558Z,102680.84
2023-02-09T23:14:19.688Z,102674.69
2023-02-09T23:16:48.128Z,102669.31
2023-02-09T23:19:21.808Z,102679.13
2023-02-09T23:21:52.484Z,102663.19
2023-02-09T23:24:24.528Z,102664.97
2023-02-09T23:26:53.419Z,102670.22
2023-02-09T23:29:22.393Z,102663.09
2023-02-09T23:31:51.039Z,102661.34
2023-02-09T23:34:23.828Z,102670.94
2023-02-09T23:36:53.149Z,102670.06
2023-02-09T23:39:23.684Z,102673.56
2023-02-09T23:41:52.169Z,102677.91
2023-02-09T23:44:22.779Z,102682.31
2023-02-09T23:46:51.131Z,102662.88
2023-02-09T23:49:19.602Z,102675.25
2023-02-09T23:51:48.012Z,102654.03
2023-02-09T23:54:16.658Z,102660.22
2023-02-09T23:56:46.732Z,102669.13
2023-02-09T23:59:16.875Z,102670.94
